Time;durP1;ratioP1;P1;durP2;ratioP2;P2;SDS_P1;SDS_P2;PMS_P1;PMS_P2;Temp;Humidity;BMP_temperature;BMP_pressure;BME280_temperature;BME280_humidity;BME280_pressure;Samples;Min_cycle;Max_cycle;Signal;HPM_P1;HPM_P2
2023/06/07 00:00:34;;;;;;;2.90;1.95;;;;;;;23.79;46.66;101700.56;5028939;28;20492;-84
2023/06/07 00:02:59;;;;;;;;;;;;;;;24.01;46.57;101740.91;5030756;28;20485;-83
2023/06/07 00:05:25;;;;;;;2.65;2.20;;;;;;;23.95;46.61;101733.72;5029549;28;19920;-84
2023/06/07 00:07:51;;;;;;;;;;;;;;;23.93;46.86;101736.34;5029947;28;20087;-84
2023/06/07 00:10:17;;;;;;;3.17;1.90;;;;;;;24.00;46.68;101728.44;5013194;28;20405;-84
2023/06/07 00:12:42;;;;;;;;;;;;;;;23.90;46.91;101730.09;5030900;28;20034;-84
2023/06/07 00:15:08;;;;;;;2.13;1.92;;;;;;;23.90;46.95;101730.97;5029655;28;19939;-85
2023/06/07 00:17:37;;;;;;;2.20;2.00;;;;;;;24.02;46.60;101724.91;5062483;28;20488;-85
2023/06/07 00:20:05;;;;;;;2.30;2.10;;;;;;;23.91;46.43;101711.41;5013441;28;20036;-85
2023/06/07 00:22:33;;;;;;;2.35;1.92;;;;;;;23.87;46.01;101682.91;5028837;28;20036;-85
2023/06/07 00:24:59;;;;;;;3.05;1.90;;;;;;;23.43;46.65;101636.91;5029463;28;20037;-86
2023/06/07 00:27:25;;;;;;;;;;;;;;;23.87;46.76;101722.91;5026399;28;20661;-86
2023/06/07 00:29:51;;;;;;;3.15;2.05;;;;;;;23.83;46.57;101686.41;5013507;28;20000;-86
2023/06/07 00:32:16;;;;;;;3.47;2.30;;;;;;;23.81;46.34;101687.25;5024544;28;20121;-86
2023/06/07 00:34:42;;;;;;;;;;;;;;;23.99;46.36;101714.22;5030483;28;20034;-86
2023/06/07 00:37:07;;;;;;;2.47;1.92;;;;;;;23.82;46.57;101699.75;5012422;28;20004;-86
2023/06/07 00:39:33;;;;;;;2.53;2.30;;;;;;;23.86;46.48;101702.47;5030319;28;20068;-86
2023/06/07 00:41:58;;;;;;;2.03;1.80;;;;;;;23.49;46.41;101627.22;5029413;28;20041;-85
2023/06/07 00:44:24;;;;;;;3.65;2.25;;;;;;;23.85;46.27;101689.97;5028625;28;20476;-86
2023/06/07 00:46:51;;;;;;;;;;;;;;;24.02;46.19;101702.66;5032596;28;20496;-85
2023/06/07 00:49:17;;;;;;;2.50;2.30;;;;;;;23.87;45.99;101666.91;5009744;28;19944;-86
2023/06/07 00:51:44;;;;;;;2.55;2.00;;;;;;;23.91;46.37;101690.06;5029402;28;20087;-85
2023/06/07 00:54:10;;;;;;;4.18;2.30;;;;;;;23.92;46.32;101697.22;5032307;28;20021;-85
2023/06/07 00:56:36;;;;;;;3.25;2.13;;;;;;;23.81;46.28;101672.16;5031572;28;20029;-85
2023/06/07 00:59:03;;;;;;;2.53;1.95;;;;;;;23.93;46.28;101685.66;5048215;28;20124;-85
2023/06/07 01:01:30;;;;;;;2.50;2.17;;;;;;;23.87;46.31;101684.69;5033103;28;20642;-85
2023/06/07 01:03:57;;;;;;;2.92;2.13;;;;;;;23.73;46.29;101658.69;5014458;28;20041;-85
2023/06/07 01:06:24;;;;;;;2.35;2.15;;;;;;;23.82;46.44;101668.63;5015975;28;20059;-85
2023/06/07 01:08:51;;;;;;;2.70;1.98;;;;;;;23.84;46.14;101663.31;5031870;28;20034;-85
2023/06/07 01:11:18;;;;;;;2.63;2.22;;;;;;;23.79;46.16;101657.88;5031721;28;20022;-85
2023/06/07 01:13:43;;;;;;;2.15;1.90;;;;;;;23.90;46.21;101679.41;5032341;28;20042;-85
2023/06/07 01:16:11;;;;;;;2.72;2.20;;;;;;;23.86;46.40;101675.78;5030596;28;20091;-86
2023/06/07 01:18:38;;;;;;;2.03;1.83;;;;;;;23.86;46.16;101680.25;5031069;28;20042;-85
2023/06/07 01:21:06;;;;;;;2.30;2.05;;;;;;;23.68;46.25;101641.72;5015505;28;20075;-85
2023/06/07 01:23:32;;;;;;;4.82;1.92;;;;;;;23.85;46.27;101671.31;5016622;28;20048;-84
2023/06/07 01:26:01;;;;;;;2.97;2.17;;;;;;;23.85;46.15;101665.97;5031662;28;20041;-84
2023/06/07 01:28:30;;;;;;;3.20;2.00;;;;;;;23.72;46.11;101645.31;5030765;28;20029;-85
2023/06/07 01:30:57;;;;;;;2.15;1.95;;;;;;;23.76;46.35;101666.75;5048231;28;20064;-85
2023/06/07 01:33:23;;;;;;;2.33;1.75;;;;;;;23.81;46.23;101665.91;5032882;28;20017;-85
2023/06/07 01:35:51;;;;;;;2.78;2.20;;;;;;;23.83;46.14;101670.41;5032315;28;20112;-85
2023/06/07 01:38:19;;;;;;;2.50;1.85;;;;;;;23.55;46.05;101621.09;5052262;28;20029;-85
2023/06/07 01:40:45;;;;;;;2.08;1.88;;;;;;;23.74;46.40;101678.25;5032102;28;20024;-85
2023/06/07 01:43:11;;;;;;;2.38;2.17;;;;;;;23.38;46.16;101607.50;5030897;28;20482;-85
2023/06/07 01:45:37;;;;;;;;;;;;;;;23.77;46.12;101673.91;5024206;28;20159;-85
2023/06/07 01:48:03;;;;;;;2.92;1.90;;;;;;;23.71;46.36;101667.56;5031557;28;20004;-85
2023/06/07 01:50:29;;;;;;;2.30;1.80;;;;;;;23.52;46.25;101618.38;5039380;28;20041;-85
2023/06/07 01:52:55;;;;;;;2.33;2.10;;;;;;;23.72;46.18;101646.22;5032837;28;20030;-85
2023/06/07 01:55:21;;;;;;;;;;;;;;;23.86;45.92;101672.22;5033872;28;20029;-85
2023/06/07 01:58:00;;;;;;;2.22;1.98;;;;;;;23.68;46.11;101654.16;5030746;28;20414;-85
2023/06/07 02:00:31;;;;;;;2.33;1.95;;;;;;;23.74;46.07;101670.25;5031210;28;20036;-85
2023/06/07 02:03:01;;;;;;;2.30;1.90;;;;;;;23.33;46.19;101619.88;5031635;28;20037;-85
2023/06/07 02:05:54;;;;;;;2.10;1.90;;;;;;;23.75;46.08;101672.06;5048029;28;20029;-85
2023/06/07 02:08:48;;;;;;;2.40;2.20;;;;;;;23.63;46.05;101648.75;5030632;28;20124;-85
2023/06/07 02:11:15;;;;;;;2.40;2.00;;;;;;;23.58;45.98;101661.16;5031587;28;20774;-84
2023/06/07 02:13:42;;;;;;;2.70;2.00;;;;;;;23.72;46.27;101680.88;5014718;28;20440;-83
2023/06/07 02:16:08;;;;;;;2.50;2.05;;;;;;;23.54;46.00;101633.53;5031256;28;20071;-84
2023/06/07 02:18:40;;;;;;;2.60;1.85;;;;;;;23.59;45.73;101636.25;5030628;28;20100;-84
2023/06/07 02:21:07;;;;;;;2.30;2.10;;;;;;;23.67;46.01;101679.03;5011987;28;20153;-84
2023/06/07 02:23:34;;;;;;;2.25;1.98;;;;;;;23.70;46.00;101671.06;5013238;28;20033;-84
2023/06/07 02:26:03;;;;;;;2.63;2.10;;;;;;;23.72;45.79;101672.00;5009379;28;20025;-83
2023/06/07 02:28:33;;;;;;;2.30;2.10;;;;;;;23.64;46.12;101670.97;5050275;28;20041;-84
2023/06/07 02:31:10;;;;;;;2.28;1.90;;;;;;;23.65;46.06;101671.00;5008924;28;20057;-84
2023/06/07 02:33:36;;;;;;;3.17;2.10;;;;;;;23.64;46.04;101670.97;5027687;28;20534;-84
2023/06/07 02:36:02;;;;;;;2.55;2.03;;;;;;;23.71;45.91;101670.22;5021589;28;20022;-84
2023/06/07 02:38:28;;;;;;;2.67;1.90;;;;;;;23.77;45.77;101665.00;5031567;28;20030;-85
2023/06/07 02:40:55;;;;;;;2.72;2.03;;;;;;;23.73;45.70;101666.69;5030008;28;20029;-84
2023/06/07 02:43:20;;;;;;;3.22;2.10;;;;;;;23.54;46.00;101652.19;5024881;28;20033;-85
2023/06/07 02:45:46;;;;;;;3.97;2.13;;;;;;;23.49;46.17;101669.88;5044783;28;20487;-84
2023/06/07 02:48:15;;;;;;;2.40;2.10;;;;;;;23.57;46.15;101673.56;5031873;28;20036;-85
2023/06/07 02:50:40;;;;;;;3.63;2.00;;;;;;;23.25;45.92;101611.75;5033670;28;20039;-85
2023/06/07 02:53:07;;;;;;;3.05;2.03;;;;;;;23.65;45.87;101683.47;5034122;28;20048;-85
2023/06/07 02:55:34;;;;;;;2.60;2.10;;;;;;;23.60;45.96;101680.72;5012520;28;20047;-84
2023/06/07 02:58:00;;;;;;;2.00;1.80;;;;;;;23.35;46.14;101647.47;5031866;28;20481;-84
2023/06/07 03:00:27;;;;;;;2.65;2.10;;;;;;;23.43;46.03;101660.88;5006273;28;20034;-84
2023/06/07 03:02:53;;;;;;;2.28;2.08;;;;;;;23.57;45.95;101686.88;5030106;28;20061;-84
2023/06/07 03:05:19;;;;;;;3.10;2.53;;;;;;;23.47;46.09;101684.06;5013143;28;20049;-85
2023/06/07 03:07:45;;;;;;;2.60;2.00;;;;;;;23.37;46.13;101675.03;5031314;28;20037;-85
2023/06/07 03:10:12;;;;;;;3.80;2.00;;;;;;;23.45;45.62;101662.72;5030645;28;20022;-85
2023/06/07 03:12:38;;;;;;;2.58;2.08;;;;;;;23.46;46.10;101687.63;5029625;28;20022;-85
2023/06/07 03:15:04;;;;;;;3.15;2.30;;;;;;;23.03;46.89;101649.59;5030532;28;20052;-84
2023/06/07 03:17:30;;;;;;;2.83;2.10;;;;;;;22.95;47.62;101650.31;5031118;28;20034;-84
2023/06/07 03:19:56;;;;;;;2.05;1.95;;;;;;;23.10;47.86;101675.47;5029391;28;20099;-84
2023/06/07 03:22:22;;;;;;;2.85;2.15;;;;;;;23.03;48.14;101661.16;5027574;28;20032;-84
2023/06/07 03:24:49;;;;;;;2.60;2.25;;;;;;;22.80;48.25;101633.19;5028518;28;20041;-83
2023/06/07 03:27:15;;;;;;;2.25;2.05;;;;;;;23.02;48.53;101678.00;5029204;28;20017;-84
2023/06/07 03:29:41;;;;;;;2.53;2.08;;;;;;;22.90;48.78;101659.09;5027508;28;20037;-83
2023/06/07 03:32:09;;;;;;;3.78;2.10;;;;;;;22.87;48.83;101665.28;5034579;28;20029;-83
2023/06/07 03:34:41;;;;;;;2.58;2.30;;;;;;;22.42;49.02;101574.84;5029266;28;20038;-84
2023/06/07 03:37:07;;;;;;;3.00;2.20;;;;;;;22.75;49.11;101654.41;5024497;28;20075;-85
2023/06/07 03:39:33;;;;;;;2.95;2.65;;;;;;;22.93;49.58;101688.47;5026985;28;20041;-84
2023/06/07 03:41:59;;;;;;;2.70;2.50;;;;;;;22.94;49.32;101699.16;5060834;28;20072;-84
2023/06/07 03:44:25;;;;;;;2.90;2.28;;;;;;;22.86;49.55;101683.88;5027462;28;20040;-83
2023/06/07 03:46:50;;;;;;;2.83;2.53;;;;;;;22.76;49.48;101666.88;5028015;28;20025;-85
2023/06/07 03:49:16;;;;;;;3.65;2.53;;;;;;;22.88;49.67;101692.81;5028408;28;20455;-84
2023/06/07 03:51:43;;;;;;;3.13;2.17;;;;;;;22.77;49.68;101680.22;5060558;28;20056;-85
2023/06/07 03:54:09;;;;;;;3.20;2.90;;;;;;;22.75;49.87;101681.94;5022641;28;20033;-85
2023/06/07 03:56:34;;;;;;;2.70;2.22;;;;;;;22.84;49.93;101699.88;5028967;28;20029;-84
2023/06/07 03:59:01;;;;;;;3.53;2.45;;;;;;;22.71;49.94;101685.41;5027985;28;20033;-84
2023/06/07 04:01:27;;;;;;;4.05;2.38;;;;;;;22.67;50.27;101680.91;5027580;28;20429;-85
2023/06/07 04:03:53;;;;;;;3.28;2.55;;;;;;;22.60;50.12;101657.69;5027453;28;20108;-85
2023/06/07 04:06:24;;;;;;;2.47;2.28;;;;;;;22.60;50.23;101664.78;5028601;28;20038;-85
2023/06/07 04:08:56;;;;;;;3.33;2.53;;;;;;;22.10;50.19;101589.28;5024797;28;20025;-85
2023/06/07 04:11:23;;;;;;;2.50;2.30;;;;;;;22.67;50.30;101695.97;5028043;28;20025;-85
2023/06/07 04:13:48;;;;;;;2.85;2.55;;;;;;;22.69;50.39;101694.22;5027801;28;20069;-86
2023/06/07 04:16:14;;;;;;;3.58;2.30;;;;;;;22.79;50.31;101703.28;5028076;28;20025;-86
2023/06/07 04:18:42;;;;;;;3.53;2.70;;;;;;;22.44;50.45;101659.16;5028318;28;20509;-85
2023/06/07 04:21:08;;;;;;;2.78;2.45;;;;;;;22.59;50.87;101690.50;5030700;28;20040;-85
2023/06/07 04:23:33;;;;;;;3.75;2.50;;;;;;;22.69;50.87;101708.47;5030858;28;20037;-85
2023/06/07 04:25:59;;;;;;;3.92;2.50;;;;;;;22.60;50.75;101696.72;5033740;28;20606;-85
2023/06/07 04:28:25;;;;;;;2.72;2.40;;;;;;;22.72;50.83;101718.25;5032134;28;20033;-85
2023/06/07 04:30:56;;;;;;;3.20;2.45;;;;;;;22.38;50.85;101658.16;5032144;28;20033;-83
2023/06/07 04:33:27;;;;;;;2.67;2.33;;;;;;;22.67;50.93;101710.19;5030781;28;20032;-83
2023/06/07 04:35:57;;;;;;;3.13;2.58;;;;;;;22.25;51.01;101647.25;5036202;28;20407;-84
2023/06/07 04:38:23;;;;;;;3.35;2.97;;;;;;;22.58;52.36;101709.09;5026845;28;20026;-83
2023/06/07 04:40:52;;;;;;;6.85;3.28;;;;;;;22.51;52.69;101705.44;5053270;28;20470;-83
2023/06/07 04:43:18;;;;;;;3.38;2.63;;;;;;;22.34;52.76;101663.41;5031186;28;20045;-85
2023/06/07 04:45:46;;;;;;;;;;;;;;;22.66;52.91;101716.38;5031229;28;20030;-84
2023/06/07 04:48:12;;;;;;;3.38;2.88;;;;;;;22.56;53.44;101706.41;5033056;28;20008;-85
2023/06/07 04:50:41;;;;;;;4.50;2.97;;;;;;;22.57;53.67;101702.88;5030280;28;20208;-84
2023/06/07 04:53:10;;;;;;;4.43;2.90;;;;;;;22.57;53.26;101705.56;5031916;28;20556;-84
2023/06/07 04:55:38;;;;;;;4.28;3.15;;;;;;;22.34;53.51;101668.72;5029248;28;20022;-85
2023/06/07 04:58:04;;;;;;;3.47;3.00;;;;;;;22.47;53.60;101692.94;5030487;28;20113;-84
2023/06/07 05:00:33;;;;;;;5.88;2.80;;;;;;;22.36;53.83;101687.38;5027398;28;20068;-84
2023/06/07 05:03:08;;;;;;;4.15;3.20;;;;;;;22.52;53.67;101710.78;5030352;28;20488;-85
2023/06/07 05:05:34;;;;;;;3.40;3.10;;;;;;;22.46;53.49;101704.44;5030400;28;20110;-84
2023/06/07 05:08:01;;;;;;;3.55;2.80;;;;;;;22.38;53.80;101696.31;5064559;28;20040;-85
2023/06/07 05:10:26;;;;;;;4.18;2.90;;;;;;;22.13;53.46;101650.53;5026573;28;20029;-85
2023/06/07 05:12:52;;;;;;;4.70;3.08;;;;;;;22.05;53.50;101635.25;5031004;28;20511;-86
2023/06/07 05:15:17;;;;;;;4.43;3.05;;;;;;;22.23;53.51;101656.97;5024098;28;20573;-86
2023/06/07 05:17:45;;;;;;;3.90;3.22;;;;;;;22.25;53.49;101667.66;5025604;28;20506;-85
2023/06/07 05:20:12;;;;;;;4.70;3.15;;;;;;;22.21;53.31;101655.13;5060345;28;20123;-85
2023/06/07 05:22:39;;;;;;;3.50;2.70;;;;;;;22.36;53.49;101692.72;5030963;28;20488;-88
2023/06/07 05:25:06;;;;;;;4.30;2.78;;;;;;;22.46;53.51;101704.44;5025189;28;20049;-84
2023/06/07 05:27:32;;;;;;;4.35;3.08;;;;;;;22.19;53.42;101651.53;5026335;28;20036;-83
2023/06/07 05:29:58;;;;;;;4.55;3.13;;;;;;;22.46;53.62;101699.13;5030415;28;20029;-83
2023/06/07 05:32:26;;;;;;;3.42;2.67;;;;;;;22.29;53.55;101680.16;5060280;28;20029;-83
2023/06/07 05:34:52;;;;;;;5.25;2.42;;;;;;;22.44;53.83;101709.72;5032006;28;20478;-85
2023/06/07 05:37:19;;;;;;;4.57;3.10;;;;;;;22.44;53.50;101707.06;5029544;28;20033;-85
2023/06/07 05:39:45;;;;;;;4.47;2.88;;;;;;;22.35;53.34;101690.91;5030073;28;20025;-85
2023/06/07 05:42:11;;;;;;;4.40;3.00;;;;;;;22.03;53.24;101637.00;5033106;28;20030;-85
2023/06/07 05:44:37;;;;;;;5.00;3.10;;;;;;;22.31;53.27;101675.75;5031129;28;20033;-85
2023/06/07 05:47:03;;;;;;;4.72;2.75;;;;;;;21.94;53.56;101616.44;5051434;28;20040;-86
2023/06/07 05:49:28;;;;;;;4.38;2.90;;;;;;;22.22;53.17;101668.44;5029749;28;20037;-85
2023/06/07 05:51:54;;;;;;;4.78;2.63;;;;;;;22.16;52.94;101665.63;5030802;28;20033;-85
2023/06/07 05:54:20;;;;;;;4.18;2.90;;;;;;;22.28;52.73;101673.03;5032076;28;20030;-85
2023/06/07 05:56:45;;;;;;;4.00;3.00;;;;;;;21.94;52.62;101613.78;5032555;28;20591;-85
2023/06/07 05:59:11;;;;;;;3.35;2.70;;;;;;;22.39;52.68;101694.53;5047952;28;20063;-85
2023/06/07 06:01:37;;;;;;;3.00;2.65;;;;;;;22.06;52.48;101634.41;5028576;28;20064;-85
2023/06/07 06:04:03;;;;;;;4.20;2.50;;;;;;;22.47;52.48;101708.91;5032281;28;20037;-84
2023/06/07 06:06:28;;;;;;;3.28;2.58;;;;;;;21.91;52.41;101614.59;5033102;28;20029;-84
2023/06/07 06:08:54;;;;;;;4.60;2.92;;;;;;;21.96;52.34;101620.91;5031326;28;20033;-84
2023/06/07 06:11:19;;;;;;;3.78;2.80;;;;;;;22.29;52.44;101689.03;5064075;28;20025;-83
2023/06/07 06:13:45;;;;;;;3.30;2.85;;;;;;;22.47;52.14;101712.44;5031970;28;20080;-83
2023/06/07 06:16:11;;;;;;;3.58;2.92;;;;;;;22.45;52.28;101713.28;5059736;28;20747;-83
2023/06/07 06:18:36;;;;;;;3.88;2.50;;;;;;;22.01;52.44;101644.03;5013921;28;20041;-83
2023/06/07 06:21:03;;;;;;;3.08;2.53;;;;;;;22.01;52.37;101655.56;5031801;28;20045;-83
2023/06/07 06:23:28;;;;;;;3.20;2.70;;;;;;;22.01;52.15;101641.38;5029360;28;20030;-83
2023/06/07 06:25:54;;;;;;;5.03;2.80;;;;;;;22.32;52.23;101702.38;5024648;28;20029;-82
2023/06/07 06:28:21;;;;;;;3.28;2.60;;;;;;;22.30;52.22;101698.78;5028905;28;20048;-83
2023/06/07 06:30:47;;;;;;;4.13;2.50;;;;;;;22.03;52.10;101639.66;5030510;28;20080;-84
2023/06/07 06:33:12;;;;;;;4.18;2.90;;;;;;;22.31;52.29;101697.94;5030164;28;20499;-83
2023/06/07 06:35:39;;;;;;;4.45;3.13;;;;;;;22.39;52.35;101716.72;5030616;28;20033;-83
2023/06/07 06:38:04;;;;;;;3.78;2.80;;;;;;;22.45;52.22;101708.84;5036752;28;20103;-83
2023/06/07 06:40:30;;;;;;;5.93;3.00;;;;;;;22.36;52.10;101704.25;5031856;28;20515;-82
2023/06/07 06:42:56;;;;;;;3.70;2.88;;;;;;;22.46;52.04;101705.34;5029216;28;20415;-82
2023/06/07 06:45:22;;;;;;;3.95;2.53;;;;;;;22.47;52.23;101714.22;5026153;28;20404;-84
2023/06/07 06:47:47;;;;;;;2.70;2.33;;;;;;;22.41;52.24;101704.34;5029767;28;20116;-83
2023/06/07 06:50:13;;;;;;;2.95;2.55;;;;;;;22.44;52.51;101704.41;5028549;28;20124;-83
2023/06/07 06:52:41;;;;;;;4.18;2.90;;;;;;;22.44;52.21;101699.09;5027005;28;20033;-83
2023/06/07 06:55:07;;;;;;;3.78;2.60;;;;;;;22.23;52.58;101683.56;5056101;28;20025;-85
2023/06/07 06:57:33;;;;;;;8.07;2.90;;;;;;;22.48;54.87;101723.97;5012088;28;20036;-83
2023/06/07 06:59:59;;;;;;;6.95;3.05;;;;;;;22.34;54.21;101697.09;5031019;28;20034;-84
2023/06/07 07:02:25;;;;;;;6.28;2.88;;;;;;;22.32;53.84;101691.75;5028568;28;20164;-84
2023/06/07 07:04:51;;;;;;;5.05;2.72;;;;;;;22.05;53.59;101640.59;5030007;28;20120;-83
2023/06/07 07:07:16;;;;;;;5.40;2.88;;;;;;;;;;5051706;28;20172;-83
2023/06/07 07:09:42;;;;;;;5.28;2.60;;;;;;;22.42;53.05;101691.94;5025419;28;20037;-84
2023/06/07 07:12:08;;;;;;;5.50;3.03;;;;;;;22.16;53.06;101663.91;5027673;28;20037;-83
2023/06/07 07:14:36;;;;;;;3.95;2.75;;;;;;;22.39;52.75;101697.19;5029703;28;20042;-84
2023/06/07 07:17:02;;;;;;;4.15;2.65;;;;;;;22.51;52.96;101710.75;5031396;28;20034;-83
2023/06/07 07:19:27;;;;;;;5.25;2.75;;;;;;;22.34;52.88;101681.13;5029552;28;20057;-83
2023/06/07 07:21:53;;;;;;;3.85;2.53;;;;;;;22.35;52.81;101698.88;5029635;28;20471;-84
2023/06/07 07:24:19;;;;;;;3.92;2.67;;;;;;;22.36;52.97;101698.91;5030606;28;20034;-84
2023/06/07 07:26:45;;;;;;;4.45;3.08;;;;;;;22.43;52.64;101699.94;5030195;28;20030;-84
2023/06/07 07:29:11;;;;;;;4.50;2.42;;;;;;;22.54;52.90;101722.38;5043064;28;20037;-84
2023/06/07 07:31:36;;;;;;;6.07;2.50;;;;;;;;;;5015622;28;20091;-84
2023/06/07 07:34:03;;;;;;;3.90;2.75;;;;;;;22.49;52.98;101718.69;5016105;28;20120;-84
2023/06/07 07:36:29;;;;;;;4.28;2.72;;;;;;;22.44;53.04;101706.19;5056875;28;20046;-84
2023/06/07 07:38:57;;;;;;;;;;;;;;;22.52;52.94;101715.19;5028554;28;20025;-84
2023/06/07 07:41:22;;;;;;;7.55;3.10;;;;;;;22.56;52.79;101717.06;5029494;28;20000;-84
2023/06/07 07:43:48;;;;;;;3.25;2.30;;;;;;;22.59;52.91;101722.44;5030118;28;20203;-85
2023/06/07 07:46:14;;;;;;;4.68;2.85;;;;;;;22.49;52.78;101701.84;5061719;28;20033;-84
2023/06/07 07:48:40;;;;;;;3.63;2.80;;;;;;;22.56;52.95;101717.06;5028125;28;20033;-84
2023/06/07 07:51:05;;;;;;;;;;;;;;;22.58;52.93;101714.44;5028435;28;20036;-84
2023/06/07 07:53:33;;;;;;;3.38;2.70;;;;;;;22.07;53.01;101629.09;5028803;28;19913;-84
2023/06/07 07:55:59;;;;;;;3.72;2.60;;;;;;;22.32;52.99;101667.78;5028388;28;20480;-84
2023/06/07 07:58:25;;;;;;;3.60;2.50;;;;;;;22.52;53.23;101709.88;5029606;28;20113;-83
2023/06/07 08:00:52;;;;;;;2.78;2.30;;;;;;;22.04;53.19;101618.41;5044071;28;20025;-84
2023/06/07 08:03:18;;;;;;;5.35;2.55;;;;;;;22.32;53.10;101667.78;5016480;28;20026;-84
2023/06/07 08:05:43;;;;;;;5.43;2.70;;;;;;;22.60;53.30;101718.91;5028816;28;20037;-84
2023/06/07 08:08:09;;;;;;;4.78;2.40;;;;;;;22.63;53.17;101715.44;5029131;28;20060;-85
2023/06/07 08:10:35;;;;;;;5.43;2.70;;;;;;;22.31;53.19;101668.66;5029052;28;20052;-86
2023/06/07 08:13:00;;;;;;;5.13;2.45;;;;;;;22.49;53.24;101704.50;5027582;28;20432;-85
2023/06/07 08:15:28;;;;;;;4.75;2.55;;;;;;;22.43;53.80;101699.94;5011551;28;20073;-85
2023/06/07 08:17:54;;;;;;;2.83;2.20;;;;;;;22.45;53.27;101692.88;5029349;28;20033;-85
2023/06/07 08:20:20;;;;;;;3.45;2.40;;;;;;;22.66;53.22;101727.03;5029292;28;20034;-85
2023/06/07 08:22:50;;;;;;;;;;;;;;;22.69;53.24;101736.81;5026901;28;20033;-84
2023/06/07 08:25:16;;;;;;;3.00;2.42;;;;;;;22.63;53.24;101719.00;5029543;28;20024;-84
2023/06/07 08:27:42;;;;;;;3.03;2.50;;;;;;;22.49;53.59;101704.50;5028021;28;20044;-85
2023/06/07 08:30:09;;;;;;;2.35;2.15;;;;;;;22.62;53.69;101721.63;5028026;28;20033;-84
2023/06/07 08:32:34;;;;;;;3.53;2.28;;;;;;;22.61;53.43;101726.03;5029623;28;20091;-84
2023/06/07 08:35:00;;;;;;;3.88;2.40;;;;;;;22.64;53.50;101731.41;5028940;28;20029;-84
2023/06/07 08:37:26;;;;;;;2.83;2.33;;;;;;;22.41;53.69;101693.69;5028107;28;20059;-84
2023/06/07 08:39:51;;;;;;;3.35;2.60;;;;;;;22.56;53.78;101711.72;5028779;28;20028;-84
2023/06/07 08:42:17;;;;;;;5.00;2.60;;;;;;;22.67;54.07;101734.16;5026381;28;20036;-84
2023/06/07 08:44:44;;;;;;;;;;;;;;;22.69;54.30;101727.09;5027987;28;20034;-84
2023/06/07 08:47:12;;;;;;;3.23;2.60;;;;;;;22.67;54.49;101730.56;5029435;28;19913;-85
2023/06/07 08:49:39;;;;;;;4.60;2.78;;;;;;;22.25;54.58;101660.56;5028673;28;20407;-85
2023/06/07 08:52:08;;;;;;;5.40;2.80;;;;;;;22.67;54.94;101727.91;5024896;28;20416;-85
2023/06/07 08:54:38;;;;;;;4.50;2.70;;;;;;;22.69;54.98;101728.84;5012280;28;20064;-84
2023/06/07 08:57:04;;;;;;;4.63;2.80;;;;;;;22.65;55.55;101716.34;5062389;28;20051;-85
2023/06/07 08:59:30;;;;;;;8.38;2.78;;;;;;;22.66;56.00;101713.72;5027068;28;20033;-85
2023/06/07 09:01:56;;;;;;;6.35;2.90;;;;;;;22.61;56.19;101706.53;5062220;28;20029;-85
2023/06/07 09:04:22;;;;;;;6.10;3.00;;;;;;;22.65;56.35;101706.59;5028418;28;20060;-85
2023/06/07 09:06:47;;;;;;;10.63;3.38;;;;;;;22.78;56.85;101731.69;5029547;28;20033;-85
2023/06/07 09:09:13;;;;;;;14.65;4.18;;;;;;;22.72;56.57;101732.47;5027188;28;20026;-85
2023/06/07 09:11:39;;;;;;;20.13;5.47;;;;;;;22.28;57.14;101649.97;5033036;28;20017;-85
2023/06/07 09:14:05;;;;;;;16.85;5.03;;;;;;;22.78;57.83;101734.38;5032284;28;20041;-85
2023/06/07 09:16:30;;;;;;;;;;;;;;;22.80;58.43;101737.06;5016501;28;20579;-85
2023/06/07 09:18:56;;;;;;;19.75;5.80;;;;;;;22.65;59.32;101713.66;5031530;28;19913;-85
2023/06/07 09:21:28;;;;;;;20.63;5.40;;;;;;;22.59;58.64;101701.16;5033014;28;20072;-85
2023/06/07 09:23:56;;;;;;;26.63;5.78;;;;;;;22.73;58.83;101736.94;5033310;28;20037;-85
2023/06/07 09:26:22;;;;;;;15.45;5.22;;;;;;;22.44;58.24;101679.56;5065454;28;20018;-85
2023/06/07 09:28:48;;;;;;;;;;;;;;;22.83;58.96;101732.66;5031371;28;20028;-85
2023/06/07 09:31:28;;;;;;;18.15;5.50;;;;;;;22.83;58.36;101732.66;5019150;28;19917;-85
2023/06/07 09:33:54;;;;;;;14.38;4.97;;;;;;;22.83;58.55;101735.34;5020635;28;20053;-85
2023/06/07 09:36:20;;;;;;;16.73;5.40;;;;;;;22.82;58.82;101732.63;5033280;28;20064;-85
2023/06/07 09:38:46;;;;;;;16.23;5.63;;;;;;;22.61;58.79;101704.75;5014790;28;20026;-84
2023/06/07 09:41:12;;;;;;;20.30;5.78;;;;;;;22.67;59.03;101706.59;5033070;28;20045;-86
2023/06/07 09:43:50;;;;;;;15.10;5.72;;;;;;;22.63;58.35;101697.69;5031862;28;20025;-85
2023/06/07 09:46:16;;;;;;;15.85;5.22;;;;;;;22.63;58.53;101700.34;5048543;28;20061;-85
2023/06/07 09:48:45;;;;;;;17.80;5.97;;;;;;;22.85;58.46;101733.59;5031569;28;20026;-84
2023/06/07 09:51:11;;;;;;;11.05;5.20;;;;;;;22.74;58.58;101712.09;5031621;28;20582;-85
2023/06/07 09:54:05;;;;;;;15.63;5.97;;;;;;;22.69;58.78;101703.13;5032788;28;20028;-85
2023/06/07 09:56:31;;;;;;;16.83;5.65;;;;;;;22.87;58.61;101733.63;5027238;28;20037;-85
2023/06/07 09:59:08;;;;;;;15.73;5.13;;;;;;;22.90;58.18;101739.00;5031244;28;20099;-83
2023/06/07 10:01:35;;;;;;;12.90;5.75;;;;;;;22.90;58.66;101737.25;5030161;28;20060;-83
2023/06/07 10:04:04;;;;;;;15.50;5.65;;;;;;;22.80;58.70;101718.41;5030474;28;20034;-83
2023/06/07 10:06:34;;;;;;;15.35;4.97;;;;;;;22.92;58.52;101740.84;5031884;28;20036;-83
2023/06/07 10:09:03;;;;;;;12.02;4.75;;;;;;;22.91;58.36;101740.81;5045217;28;20021;-83
2023/06/07 10:11:34;;;;;;;15.90;5.25;;;;;;;22.86;58.04;101719.44;5031757;28;20021;-83
2023/06/07 10:14:05;;;;;;;14.13;5.40;;;;;;;22.86;58.17;101716.78;5031103;28;20053;-84
2023/06/07 10:16:34;;;;;;;10.38;4.97;;;;;;;22.79;58.03;101704.19;5029819;28;20055;-83
2023/06/07 10:19:03;;;;;;;11.85;4.68;;;;;;;22.71;58.11;101690.75;5031091;28;20029;-83
2023/06/07 10:21:31;;;;;;;10.35;4.68;;;;;;;22.74;57.80;101692.56;5029794;28;20418;-83
2023/06/07 10:24:04;;;;;;;11.82;5.10;;;;;;;22.50;58.04;101653.03;5029921;28;20032;-82
2023/06/07 10:26:35;;;;;;;11.98;4.63;;;;;;;22.98;57.55;101729.41;5030320;28;20017;-82
2023/06/07 10:29:08;;;;;;;11.00;4.95;;;;;;;22.96;57.53;101724.06;5031468;28;20026;-83
2023/06/07 10:31:36;;;;;;;13.25;5.20;;;;;;;23.00;57.35;101732.09;5032064;28;20669;-83
2023/06/07 10:34:07;;;;;;;11.70;4.75;;;;;;;22.87;57.85;101710.56;5030759;28;20515;-83
2023/06/07 10:36:38;;;;;;;11.98;5.18;;;;;;;22.71;57.90;101677.44;5031699;28;20112;-83
2023/06/07 10:39:06;;;;;;;9.45;4.80;;;;;;;22.94;58.23;101708.91;5013149;28;20041;-83
2023/06/07 10:41:33;;;;;;;12.10;5.05;;;;;;;23.01;59.19;101724.19;5029386;28;20068;-83
2023/06/07 10:44:01;;;;;;;11.25;4.88;;;;;;;22.90;58.49;101707.97;5029581;28;20120;-82
2023/06/07 10:46:27;;;;;;;11.48;4.93;;;;;;;23.05;59.02;101726.03;5028997;28;20021;-83
2023/06/07 10:48:54;;;;;;;;;;;;;;;23.06;59.56;101722.47;5030819;28;20075;-82
2023/06/07 10:51:44;;;;;;;10.10;4.85;;;;;;;23.03;61.22;101719.78;5030301;28;19913;-82
2023/06/07 10:54:10;;;;;;;12.27;4.65;;;;;;;22.89;60.19;101697.28;5029042;28;20018;-83
2023/06/07 10:56:37;;;;;;;12.98;4.72;;;;;;;22.72;60.30;101668.56;5061940;28;20038;-82
2023/06/07 10:59:27;;;;;;;10.30;4.40;;;;;;;23.11;60.24;101731.47;5030316;28;20028;-82
2023/06/07 11:01:54;;;;;;;13.65;5.15;;;;;;;23.03;60.15;101714.44;5028759;28;20779;-83
2023/06/07 11:04:38;;;;;;;11.20;4.88;;;;;;;23.13;60.46;101726.16;5028155;28;20033;-83
2023/06/07 11:07:27;;;;;;;9.77;4.65;;;;;;;22.93;61.07;101693.81;5028708;28;20025;-83
2023/06/07 11:10:04;;;;;;;12.02;4.85;;;;;;;23.14;61.61;101735.94;5029145;28;20048;-83
2023/06/07 11:12:43;;;;;;;12.80;5.07;;;;;;;23.12;61.34;101729.69;5030059;28;20114;-83
2023/06/07 11:15:21;;;;;;;10.18;4.20;;;;;;;23.14;61.47;101735.94;5030026;28;20041;-83
2023/06/07 11:17:51;;;;;;;9.55;4.47;;;;;;;23.03;61.93;101706.44;5029154;28;20429;-82
2023/06/07 11:20:38;;;;;;;15.57;5.10;;;;;;;23.16;61.99;101727.09;5030134;28;20535;-83
2023/06/07 11:23:29;;;;;;;11.80;4.93;;;;;;;23.11;61.89;101725.22;5030400;28;20089;-83
2023/06/07 11:25:59;;;;;;;11.70;4.65;;;;;;;22.88;61.84;101679.47;5019454;28;20116;-83
2023/06/07 11:28:31;;;;;;;10.15;4.50;;;;;;;22.89;61.76;101675.97;5030041;28;20025;-84
2023/06/07 11:30:58;;;;;;;13.48;5.05;;;;;;;22.97;61.56;101693.00;5029885;28;20079;-82